createdAt,value
2023-03-22T00:00:12.610Z,27.24
2023-03-22T00:00:42.655Z,27.29
2023-03-22T00:01:12.680Z,27.29
2023-03-22T00:01:42.721Z,27.26
2023-03-22T00:02:12.823Z,27.27
2023-03-22T00:02:42.898Z,27.29
2023-03-22T00:03:12.919Z,27.27
2023-03-22T00:03:43.048Z,27.26
2023-03-22T00:04:13.080Z,27.27
2023-03-22T00:04:42.991Z,27.26
2023-03-22T00:05:13.021Z,27.26
2023-03-22T00:05:43.049Z,27.26
2023-03-22T00:06:13.101Z,27.23
2023-03-22T00:06:43.137Z,27.26
2023-03-22T00:07:13.166Z,27.26
2023-03-22T00:07:43.252Z,27.26
2023-03-22T00:08:13.270Z,27.26
2023-03-22T00:08:43.302Z,27.26
2023-03-22T00:09:13.329Z,27.27
2023-03-22T00:09:43.373Z,27.24
2023-03-22T00:10:13.424Z,27.26
2023-03-22T00:10:43.454Z,27.26
2023-03-22T00:11:13.486Z,27.24
2023-03-22T00:11:43.523Z,27.24
2023-03-22T00:12:13.545Z,27.27
2023-03-22T00:12:43.597Z,27.24
2023-03-22T00:13:13.610Z,27.27
2023-03-22T00:13:43.642Z,27.23
2023-03-22T00:14:13.670Z,27.26
2023-03-22T00:14:43.706Z,27.26
2023-03-22T00:15:13.768Z,27.23
2023-03-22T00:15:43.835Z,27.24
2023-03-22T00:16:13.933Z,27.26
2023-03-22T00:16:43.954Z,27.26
2023-03-22T00:17:13.948Z,27.26
2023-03-22T00:17:44.067Z,27.23
2023-03-22T00:18:14.062Z,27.24
2023-03-22T00:18:44.057Z,27.23
2023-03-22T00:19:14.171Z,27.26
2023-03-22T00:19:44.291Z,27.24
2023-03-22T00:20:14.438Z,27.23
2023-03-22T00:20:44.444Z,27.26
2023-03-22T00:21:14.428Z,27.23
2023-03-22T00:21:44.566Z,27.23
2023-03-22T00:22:14.568Z,27.24
2023-03-22T00:22:44.560Z,27.24
2023-03-22T00:23:14.583Z,27.24
2023-03-22T00:23:44.552Z,27.24
2023-03-22T00:24:14.670Z,27.24
2023-03-22T00:24:44.666Z,27.23
2023-03-22T00:25:14.702Z,27.24
2023-03-22T00:25:44.689Z,27.22
2023-03-22T00:26:14.845Z,27.22
2023-03-22T00:26:44.836Z,27.26
2023-03-22T00:27:14.872Z,27.23
2023-03-22T00:27:44.893Z,27.23
2023-03-22T00:28:14.928Z,27.22
2023-03-22T00:28:44.968Z,27.23
2023-03-22T00:29:14.991Z,27.23
2023-03-22T00:29:45.025Z,27.22
2023-03-22T00:30:15.067Z,27.26
2023-03-22T00:30:45.096Z,27.23
2023-03-22T00:31:15.158Z,27.23
2023-03-22T00:31:45.249Z,27.23
2023-03-22T00:32:15.185Z,27.22
2023-03-22T00:32:45.214Z,27.24
2023-03-22T00:33:15.249Z,27.22
2023-03-22T00:33:45.311Z,27.23
2023-03-22T00:34:15.364Z,27.24
2023-03-22T00:34:45.395Z,27.23
2023-03-22T00:35:15.422Z,27.22
2023-03-22T00:35:45.482Z,27.20
2023-03-22T00:36:15.529Z,27.23
2023-03-22T00:36:45.566Z,27.23
2023-03-22T00:37:15.598Z,27.22
2023-03-22T00:37:45.626Z,27.20
2023-03-22T00:38:15.669Z,27.24
2023-03-22T00:38:45.723Z,27.22
2023-03-22T00:39:15.742Z,27.22
2023-03-22T00:39:45.765Z,27.20
2023-03-22T00:40:18.223Z,27.20
2023-03-22T00:40:45.845Z,27.20
2023-03-22T00:41:15.932Z,27.20
2023-03-22T00:41:45.977Z,27.22
2023-03-22T00:42:16.000Z,27.20
2023-03-22T00:42:46.026Z,27.20
2023-03-22T00:43:16.059Z,27.20
2023-03-22T00:43:46.131Z,27.23
2023-03-22T00:44:16.131Z,27.20
2023-03-22T00:44:46.168Z,27.19
2023-03-22T00:45:16.219Z,27.20
2023-03-22T00:45:46.292Z,27.20
2023-03-22T00:46:16.465Z,27.22
2023-03-22T00:46:46.403Z,27.20
2023-03-22T00:47:16.436Z,27.19
2023-03-22T00:47:46.512Z,27.19
2023-03-22T00:48:16.583Z,27.22
2023-03-22T00:48:46.606Z,27.20
2023-03-22T00:49:16.627Z,27.20
2023-03-22T00:49:46.663Z,27.19
2023-03-22T00:50:16.692Z,27.20
2023-03-22T00:50:46.721Z,27.22
2023-03-22T00:51:17.069Z,27.22
2023-03-22T00:51:46.847Z,27.19
2023-03-22T00:52:16.880Z,27.20
2023-03-22T00:52:46.920Z,27.20
2023-03-22T00:53:16.945Z,27.22
2023-03-22T00:53:46.982Z,27.17
2023-03-22T00:54:17.041Z,27.20
2023-03-22T00:54:47.046Z,27.20
2023-03-22T00:55:17.082Z,27.19
2023-03-22T00:55:47.121Z,27.17
2023-03-22T00:56:17.173Z,27.17
2023-03-22T00:56:47.196Z,27.19
2023-03-22T00:57:17.228Z,27.15
2023-03-22T00:57:47.263Z,27.17
2023-03-22T00:58:17.299Z,27.19
2023-03-22T00:58:47.325Z,27.17
2023-03-22T00:59:17.353Z,27.17
2023-03-22T00:59:47.388Z,27.17
2023-03-22T01:00:17.428Z,27.19
2023-03-22T01:00:47.503Z,27.19
2023-03-22T01:01:17.586Z,27.16
2023-03-22T01:01:47.621Z,27.16
2023-03-22T01:02:17.648Z,27.17
2023-03-22T01:02:47.678Z,27.17
2023-03-22T01:03:17.760Z,27.17
2023-03-22T01:03:47.854Z,27.17
2023-03-22T01:04:18.096Z,27.20
2023-03-22T01:04:47.914Z,27.16
2023-03-22T01:05:17.940Z,27.19
2023-03-22T01:05:47.995Z,27.19
2023-03-22T01:06:18.050Z,27.16
2023-03-22T01:06:48.072Z,27.17
2023-03-22T01:07:18.107Z,27.19
2023-03-22T01:07:48.137Z,27.17
2023-03-22T01:08:18.171Z,27.15
2023-03-22T01:08:48.199Z,27.16
2023-03-22T01:09:18.238Z,27.17
2023-03-22T01:09:48.290Z,27.16
2023-03-22T01:10:18.320Z,27.17
2023-03-22T01:10:48.350Z,27.16
2023-03-22T01:11:18.400Z,27.17
2023-03-22T01:11:48.422Z,27.15
2023-03-22T01:12:18.457Z,27.16
2023-03-22T01:12:48.486Z,27.16
2023-03-22T01:13:18.523Z,27.17
2023-03-22T01:13:48.566Z,27.15
2023-03-22T01:14:18.583Z,27.16
2023-03-22T01:14:48.612Z,27.16
2023-03-22T01:15:18.635Z,27.16
2023-03-22T01:15:48.669Z,27.15
2023-03-22T01:16:18.765Z,27.16
2023-03-22T01:16:48.820Z,27.17
2023-03-22T01:17:18.828Z,27.15
2023-03-22T01:17:48.945Z,27.17
2023-03-22T01:18:18.956Z,27.17
2023-03-22T01:18:48.955Z,27.17
2023-03-22T01:19:19.069Z,27.16
2023-03-22T01:19:49.071Z,27.16
2023-03-22T01:20:19.178Z,27.17
2023-03-22T01:20:49.308Z,27.16
2023-03-22T01:21:19.298Z,27.15
2023-03-22T01:21:49.418Z,27.15
2023-03-22T01:22:19.531Z,27.15
2023-03-22T01:22:49.527Z,27.15
2023-03-22T01:23:19.518Z,27.16
2023-03-22T01:23:49.637Z,27.17
2023-03-22T01:24:19.754Z,27.16
2023-03-22T01:24:49.777Z,27.15
2023-03-22T01:25:19.865Z,27.16
2023-03-22T01:25:50.010Z,27.15
2023-03-22T01:26:20.004Z,27.15
2023-03-22T01:26:50.007Z,27.17
2023-03-22T01:27:20.034Z,27.19
2023-03-22T01:27:50.080Z,27.15
2023-03-22T01:28:20.169Z,27.16
2023-03-22T01:28:50.174Z,27.15
2023-03-22T01:29:20.226Z,27.13
2023-03-22T01:29:50.240Z,27.16
2023-03-22T01:30:20.272Z,27.15
2023-03-22T01:30:50.334Z,27.15
2023-03-22T01:31:20.447Z,27.16
2023-03-22T01:31:50.470Z,27.15
2023-03-22T01:32:20.495Z,27.15
2023-03-22T01:32:50.527Z,27.13
2023-03-22T01:33:20.558Z,27.10
2023-03-22T01:33:50.591Z,27.12
2023-03-22T01:34:20.630Z,27.12
2023-03-22T01:34:50.656Z,27.13
2023-03-22T01:35:20.698Z,27.15
2023-03-22T01:35:50.785Z,27.15
2023-03-22T01:36:20.861Z,27.15
2023-03-22T01:36:50.902Z,27.13
2023-03-22T01:37:20.928Z,27.13
2023-03-22T01:37:50.957Z,27.13
2023-03-22T01:38:20.986Z,27.13
2023-03-22T01:38:51.016Z,27.13
2023-03-22T01:39:21.062Z,27.15
2023-03-22T01:39:51.079Z,27.13
2023-03-22T01:40:21.139Z,27.15
2023-03-22T01:40:51.164Z,27.12
2023-03-22T01:41:21.194Z,27.10
2023-03-22T01:41:51.225Z,27.12
2023-03-22T01:42:21.249Z,27.10
2023-03-22T01:42:51.283Z,27.12
2023-03-22T01:43:21.319Z,27.10
2023-03-22T01:43:51.348Z,27.12
2023-03-22T01:44:21.375Z,27.12
2023-03-22T01:44:51.404Z,27.10
2023-03-22T01:45:21.438Z,27.12
2023-03-22T01:45:51.681Z,27.12
2023-03-22T01:46:21.540Z,27.12
2023-03-22T01:46:51.548Z,27.10
2023-03-22T01:47:21.574Z,27.13
2023-03-22T01:47:51.648Z,27.15
2023-03-22T01:48:21.706Z,27.12
2023-03-22T01:48:51.780Z,27.10
2023-03-22T01:49:21.869Z,27.10
2023-03-22T01:49:51.828Z,27.12
2023-03-22T01:50:21.828Z,27.09
2023-03-22T01:50:51.876Z,27.12
2023-03-22T01:51:21.923Z,27.09
2023-03-22T01:51:51.958Z,27.10
2023-03-22T01:52:21.989Z,27.10
2023-03-22T01:52:52.019Z,27.10
2023-03-22T01:53:22.032Z,27.09
2023-03-22T01:53:52.062Z,27.10
2023-03-22T01:54:22.098Z,27.09
2023-03-22T01:54:52.132Z,27.07
2023-03-22T01:55:22.160Z,27.12
2023-03-22T01:55:52.259Z,27.09
2023-03-22T01:56:22.261Z,27.10
2023-03-22T01:56:52.292Z,27.09
2023-03-22T01:57:22.331Z,27.09
2023-03-22T01:57:52.360Z,27.10
2023-03-22T01:58:22.389Z,27.09
2023-03-22T01:58:52.429Z,27.10
2023-03-22T01:59:22.455Z,27.12
2023-03-22T01:59:52.496Z,27.10
2023-03-22T02:00:22.533Z,27.07
2023-03-22T02:00:52.584Z,27.07
2023-03-22T02:01:22.652Z,27.07
2023-03-22T02:01:52.685Z,27.07
2023-03-22T02:02:22.788Z,27.07
2023-03-22T02:02:52.857Z,27.07
2023-03-22T02:03:22.869Z,27.09
2023-03-22T02:03:52.907Z,27.10
2023-03-22T02:04:22.937Z,27.06
2023-03-22T02:04:52.968Z,27.09
2023-03-22T02:05:23.037Z,27.07
2023-03-22T02:05:53.034Z,27.09
2023-03-22T02:06:23.074Z,27.06
2023-03-22T02:06:53.107Z,27.09
2023-03-22T02:07:23.140Z,27.09
2023-03-22T02:07:53.177Z,27.06
2023-03-22T02:08:23.201Z,27.07
2023-03-22T02:08:53.231Z,27.06
2023-03-22T02:09:23.260Z,27.06
2023-03-22T02:09:53.294Z,27.05
2023-03-22T02:10:23.338Z,27.09
2023-03-22T02:10:53.387Z,27.07
2023-03-22T02:11:23.451Z,27.06
2023-03-22T02:11:53.510Z,27.07
2023-03-22T02:12:23.545Z,27.09
2023-03-22T02:12:53.573Z,27.06
2023-03-22T02:13:23.611Z,27.07
2023-03-22T02:13:53.644Z,27.09
2023-03-22T02:14:24.542Z,27.07
2023-03-22T02:14:53.787Z,27.07
2023-03-22T02:15:23.820Z,27.05
2023-03-22T02:15:53.883Z,27.07
2023-03-22T02:16:24.191Z,27.06
2023-03-22T02:16:53.951Z,27.07
2023-03-22T02:17:24.069Z,27.06
2023-03-22T02:17:54.186Z,27.06
2023-03-22T02:18:24.186Z,27.07
2023-03-22T02:18:54.301Z,27.06
2023-03-22T02:19:24.426Z,27.05
2023-03-22T02:19:54.420Z,27.06
2023-03-22T02:20:24.539Z,27.05
2023-03-22T02:20:54.665Z,27.06
2023-03-22T02:21:24.662Z,27.06
2023-03-22T02:21:54.661Z,27.05
2023-03-22T02:22:24.774Z,27.06
2023-03-22T02:22:54.768Z,27.05
2023-03-22T02:23:24.887Z,27.06
2023-03-22T02:23:55.004Z,27.06
2023-03-22T02:24:25.122Z,27.07
2023-03-22T02:24:55.116Z,27.05
2023-03-22T02:25:25.243Z,27.06
2023-03-22T02:25:55.267Z,27.06
2023-03-22T02:26:25.266Z,27.06
2023-03-22T02:26:55.317Z,27.03
2023-03-22T02:27:25.323Z,27.02
2023-03-22T02:27:55.358Z,27.03
2023-03-22T02:28:25.390Z,27.03
2023-03-22T02:28:55.426Z,27.03
2023-03-22T02:29:25.453Z,27.05
2023-03-22T02:29:55.493Z,27.03
2023-03-22T02:30:25.520Z,27.05
2023-03-22T02:30:55.581Z,27.03
2023-03-22T02:31:25.668Z,27.03
2023-03-22T02:31:55.693Z,27.03
2023-03-22T02:32:25.725Z,27.05
2023-03-22T02:32:55.769Z,27.05
2023-03-22T02:33:25.807Z,27.03
2023-03-22T02:33:55.843Z,27.06
2023-03-22T02:34:25.870Z,27.02
2023-03-22T02:34:55.902Z,27.03
2023-03-22T02:35:25.977Z,27.03
2023-03-22T02:35:56.010Z,27.03
2023-03-22T02:36:26.077Z,27.03
2023-03-22T02:36:56.104Z,27.03
2023-03-22T02:37:26.137Z,27.03
2023-03-22T02:37:56.168Z,27.02
2023-03-22T02:38:26.216Z,27.06
2023-03-22T02:38:56.227Z,27.03
2023-03-22T02:39:26.261Z,27.03
2023-03-22T02:39:56.304Z,27.03
2023-03-22T02:40:26.322Z,27.02
2023-03-22T02:40:56.392Z,27.03
2023-03-22T02:41:26.421Z,27.06
2023-03-22T02:41:56.446Z,27.03
2023-03-22T02:42:26.510Z,27.03
2023-03-22T02:42:56.513Z,27.03
2023-03-22T02:43:26.537Z,27.05
2023-03-22T02:43:56.564Z,27.02
2023-03-22T02:44:26.602Z,27.02
2023-03-22T02:44:56.632Z,27.03
2023-03-22T02:45:26.676Z,27.05
2023-03-22T02:45:56.714Z,27.03
2023-03-22T02:46:26.845Z,27.02
2023-03-22T02:46:56.944Z,27.02
2023-03-22T02:47:26.859Z,27.02
2023-03-22T02:47:56.924Z,27.02
2023-03-22T02:48:27.059Z,27.02
2023-03-22T02:48:56.970Z,27.02
2023-03-22T02:49:27.016Z,27.01
2023-03-22T02:49:57.037Z,27.02
2023-03-22T02:50:27.067Z,27.02
2023-03-22T02:50:57.108Z,27.02
2023-03-22T02:51:27.167Z,27.02
2023-03-22T02:51:57.177Z,27.02
2023-03-22T02:52:27.218Z,27.02
2023-03-22T02:52:57.247Z,27.01
2023-03-22T02:53:27.287Z,27.02
2023-03-22T02:53:57.308Z,27.03
2023-03-22T02:54:27.340Z,27.02
2023-03-22T02:54:57.409Z,27.05
2023-03-22T02:55:27.466Z,27.02
2023-03-22T02:55:57.472Z,27.02
2023-03-22T02:56:27.529Z,26.98
2023-03-22T02:56:57.548Z,27.02
2023-03-22T02:57:27.574Z,27.02
2023-03-22T02:57:57.627Z,26.98
2023-03-22T02:58:27.654Z,27.01
2023-03-22T02:58:57.667Z,26.99
2023-03-22T02:59:27.693Z,27.01
2023-03-22T02:59:57.725Z,27.01
2023-03-22T03:00:27.759Z,27.01
2023-03-22T03:00:57.827Z,27.01
2023-03-22T03:01:27.865Z,26.99
2023-03-22T03:01:58.002Z,27.02
2023-03-22T03:02:27.977Z,26.99
2023-03-22T03:02:57.887Z,26.99
2023-03-22T03:03:27.920Z,26.98
2023-03-22T03:03:57.948Z,26.99
2023-03-22T03:04:27.983Z,26.99
2023-03-22T03:04:58.017Z,26.99
2023-03-22T03:05:28.051Z,26.99
2023-03-22T03:05:58.118Z,27.01
2023-03-22T03:06:28.140Z,26.99
2023-03-22T03:06:58.167Z,26.99
2023-03-22T03:07:28.192Z,26.98
2023-03-22T03:07:58.230Z,26.98
2023-03-22T03:08:28.259Z,26.99
2023-03-22T03:08:58.322Z,26.99
2023-03-22T03:09:28.361Z,26.98
2023-03-22T03:09:58.390Z,26.99
2023-03-22T03:10:28.439Z,26.98
2023-03-22T03:10:58.485Z,26.98
2023-03-22T03:11:28.531Z,26.96
2023-03-22T03:11:58.556Z,26.98
2023-03-22T03:12:28.596Z,26.96
2023-03-22T03:12:58.616Z,26.96
2023-03-22T03:13:28.683Z,26.96
2023-03-22T03:13:58.685Z,26.96
2023-03-22T03:14:28.750Z,26.98
2023-03-22T03:14:58.756Z,26.98
2023-03-22T03:15:28.790Z,26.96
2023-03-22T03:15:58.929Z,26.96
2023-03-22T03:16:28.926Z,26.96
2023-03-22T03:16:58.907Z,26.96
2023-03-22T03:17:28.906Z,26.96
2023-03-22T03:17:59.029Z,26.94
2023-03-22T03:18:29.029Z,26.95
2023-03-22T03:18:59.146Z,26.95
2023-03-22T03:19:29.265Z,26.95
2023-03-22T03:19:59.387Z,26.95
2023-03-22T03:20:29.507Z,26.94
2023-03-22T03:20:59.518Z,26.95
2023-03-22T03:21:29.509Z,26.94
2023-03-22T03:21:59.512Z,26.92
2023-03-22T03:22:29.501Z,26.94
2023-03-22T03:22:59.615Z,26.96
2023-03-22T03:23:29.741Z,26.94
2023-03-22T03:23:59.731Z,26.96
2023-03-22T03:24:29.726Z,26.95
2023-03-22T03:24:59.721Z,26.94
2023-03-22T03:25:29.719Z,26.96
2023-03-22T03:25:59.868Z,26.96
2023-03-22T03:26:29.866Z,26.98
2023-03-22T03:26:59.885Z,26.94
2023-03-22T03:27:29.919Z,26.94
2023-03-22T03:27:59.943Z,26.92
2023-03-22T03:28:29.993Z,26.94
2023-03-22T03:29:00.031Z,26.96
2023-03-22T03:29:30.051Z,26.94
2023-03-22T03:30:00.154Z,26.92
2023-03-22T03:30:30.171Z,26.94
2023-03-22T03:31:00.202Z,26.92
2023-03-22T03:31:30.291Z,26.94
2023-03-22T03:32:00.402Z,26.96
2023-03-22T03:32:30.305Z,26.92
2023-03-22T03:33:00.341Z,26.94
2023-03-22T03:33:30.376Z,26.92
2023-03-22T03:34:00.403Z,26.92
2023-03-22T03:34:30.432Z,26.94
2023-03-22T03:35:00.465Z,26.95
2023-03-22T03:35:30.528Z,26.92
2023-03-22T03:36:00.554Z,26.95
2023-03-22T03:36:30.596Z,26.94
2023-03-22T03:37:00.632Z,26.92
2023-03-22T03:37:30.672Z,26.92
2023-03-22T03:38:00.703Z,26.95
2023-03-22T03:38:30.741Z,26.92
2023-03-22T03:39:00.780Z,26.92
2023-03-22T03:39:30.800Z,26.95
2023-03-22T03:40:00.837Z,26.92
2023-03-22T03:40:30.858Z,26.92
2023-03-22T03:41:00.913Z,26.92
2023-03-22T03:41:30.951Z,26.92
2023-03-22T03:42:00.981Z,26.92
2023-03-22T03:42:31.012Z,26.92
2023-03-22T03:43:01.047Z,26.92
2023-03-22T03:43:31.075Z,26.91
2023-03-22T03:44:01.260Z,26.91
2023-03-22T03:44:31.211Z,26.92
2023-03-22T03:45:01.204Z,26.91
2023-03-22T03:45:31.287Z,26.91
2023-03-22T03:46:01.395Z,26.92
2023-03-22T03:46:31.422Z,26.89
2023-03-22T03:47:01.459Z,26.89
2023-03-22T03:47:31.479Z,26.92
2023-03-22T03:48:01.532Z,26.91
2023-03-22T03:48:31.552Z,26.91
2023-03-22T03:49:01.585Z,26.91
2023-03-22T03:49:31.607Z,26.89
2023-03-22T03:50:01.652Z,26.91
2023-03-22T03:50:31.681Z,26.92
2023-03-22T03:51:01.727Z,26.91
2023-03-22T03:51:31.759Z,26.94
2023-03-22T03:52:01.787Z,26.92
2023-03-22T03:52:31.829Z,26.92
2023-03-22T03:53:01.850Z,26.95
2023-03-22T03:53:31.888Z,26.95
2023-03-22T03:54:01.920Z,26.95
2023-03-22T03:54:31.983Z,26.95
2023-03-22T03:55:01.990Z,26.95
2023-03-22T03:55:32.035Z,26.96
2023-03-22T03:56:02.079Z,26.96
2023-03-22T03:56:32.119Z,26.99
2023-03-22T03:57:03.981Z,27.01
2023-03-22T03:57:32.155Z,26.98
2023-03-22T03:58:02.261Z,26.99
2023-03-22T03:58:32.262Z,27.02
2023-03-22T03:59:02.296Z,26.99
2023-03-22T03:59:32.322Z,27.03
2023-03-22T04:00:02.410Z,27.02
2023-03-22T04:00:32.420Z,27.02
2023-03-22T04:01:02.451Z,27.03
2023-03-22T04:01:32.501Z,27.05
2023-03-22T04:02:02.573Z,27.07
2023-03-22T04:02:32.644Z,27.07
2023-03-22T04:03:02.686Z,27.07
2023-03-22T04:03:32.716Z,27.09
2023-03-22T04:04:02.801Z,27.10
2023-03-22T04:04:32.892Z,27.10
2023-03-22T04:05:02.796Z,27.09
2023-03-22T04:05:32.830Z,27.12
2023-03-22T04:06:02.863Z,27.10
2023-03-22T04:06:32.908Z,27.13
2023-03-22T04:07:02.941Z,27.10
2023-03-22T04:07:32.978Z,27.13
2023-03-22T04:08:03.005Z,27.13
2023-03-22T04:08:33.042Z,27.13
2023-03-22T04:09:03.072Z,27.16
2023-03-22T04:09:33.104Z,27.13
2023-03-22T04:10:03.143Z,27.16
2023-03-22T04:10:33.166Z,27.16
2023-03-22T04:11:03.213Z,27.17
2023-03-22T04:11:33.250Z,27.16
2023-03-22T04:12:03.273Z,27.17
2023-03-22T04:12:33.325Z,27.17
2023-03-22T04:13:03.362Z,27.16
2023-03-22T04:13:33.397Z,27.16
2023-03-22T04:14:03.421Z,27.17
2023-03-22T04:14:33.453Z,27.19
2023-03-22T04:15:03.495Z,27.20
2023-03-22T04:15:33.550Z,27.20
2023-03-22T04:16:03.558Z,27.19
2023-03-22T04:16:33.649Z,27.19
2023-03-22T04:17:03.664Z,27.17
2023-03-22T04:17:33.653Z,27.17
2023-03-22T04:18:03.656Z,27.20
2023-03-22T04:18:33.758Z,27.20
2023-03-22T04:19:03.878Z,27.19
2023-03-22T04:19:33.883Z,27.20
2023-03-22T04:20:05.870Z,27.20
2023-03-22T04:20:34.006Z,27.19
2023-03-22T04:21:04.122Z,27.22
2023-03-22T04:21:34.249Z,27.22
2023-03-22T04:22:04.245Z,27.23
2023-03-22T04:22:34.237Z,27.20
2023-03-22T04:23:04.354Z,27.22
2023-03-22T04:23:34.469Z,27.22
2023-03-22T04:24:04.590Z,27.22
2023-03-22T04:24:34.706Z,27.22
2023-03-22T04:25:04.819Z,27.23
2023-03-22T04:25:34.940Z,27.22
2023-03-22T04:26:04.938Z,27.19
2023-03-22T04:26:35.070Z,27.20
2023-03-22T04:27:05.108Z,27.20
2023-03-22T04:27:35.139Z,27.19
2023-03-22T04:28:05.176Z,27.20
2023-03-22T04:28:35.229Z,27.20
2023-03-22T04:29:05.251Z,27.19
2023-03-22T04:29:35.279Z,27.19
2023-03-22T04:30:05.315Z,27.19
2023-03-22T04:30:35.390Z,27.19
2023-03-22T04:31:05.501Z,27.20
2023-03-22T04:31:35.526Z,27.19
2023-03-22T04:32:05.560Z,27.19
2023-03-22T04:32:35.582Z,27.19
2023-03-22T04:33:05.619Z,27.20
2023-03-22T04:33:35.649Z,27.20
2023-03-22T04:34:05.867Z,27.17
2023-03-22T04:34:35.796Z,27.16
2023-03-22T04:35:05.849Z,27.16
2023-03-22T04:35:35.930Z,27.16
2023-03-22T04:36:05.983Z,27.15
2023-03-22T04:36:36.054Z,27.16
2023-03-22T04:37:06.087Z,27.15
2023-03-22T04:37:36.116Z,27.16
2023-03-22T04:38:06.142Z,27.15
2023-03-22T04:38:36.177Z,27.16
2023-03-22T04:39:06.217Z,27.15
2023-03-22T04:39:36.257Z,27.16
2023-03-22T04:40:06.293Z,27.17
2023-03-22T04:40:36.336Z,27.17
2023-03-22T04:41:06.409Z,27.19
2023-03-22T04:41:36.428Z,27.19
2023-03-22T04:42:06.464Z,27.16
2023-03-22T04:42:36.491Z,27.05
2023-03-22T04:43:06.524Z,27.05
2023-03-22T04:43:36.560Z,27.10
2023-03-22T04:44:06.606Z,27.15
2023-03-22T04:44:36.628Z,27.15
2023-03-22T04:45:06.695Z,27.15
2023-03-22T04:45:36.713Z,27.16
2023-03-22T04:46:06.799Z,27.17
2023-03-22T04:46:36.957Z,27.17
2023-03-22T04:47:06.948Z,27.17
2023-03-22T04:47:36.985Z,27.17
2023-03-22T04:48:07.067Z,27.19
2023-03-22T04:48:37.113Z,27.23
2023-03-22T04:49:07.194Z,27.23
2023-03-22T04:49:37.224Z,27.24
2023-03-22T04:50:07.252Z,27.23
2023-03-22T04:50:37.491Z,27.22
2023-03-22T04:51:07.392Z,27.23
2023-03-22T04:51:37.436Z,27.26
2023-03-22T04:52:07.488Z,27.23
2023-03-22T04:52:37.601Z,27.20
2023-03-22T04:53:07.508Z,27.16
2023-03-22T04:53:37.548Z,27.16
2023-03-22T04:54:07.586Z,27.15
2023-03-22T04:54:37.623Z,27.13
2023-03-22T04:55:07.723Z,27.09
2023-03-22T04:55:37.795Z,27.09
2023-03-22T04:56:07.815Z,27.09
2023-03-22T04:56:37.857Z,27.07
2023-03-22T04:57:07.885Z,27.05
2023-03-22T04:57:37.919Z,27.05
2023-03-22T04:58:07.965Z,27.03
2023-03-22T04:58:37.982Z,27.03
2023-03-22T04:59:08.027Z,27.03
2023-03-22T04:59:38.049Z,27.02
2023-03-22T05:00:08.075Z,27.01
2023-03-22T05:00:38.458Z,27.01
2023-03-22T05:01:08.118Z,27.01
2023-03-22T05:01:38.254Z,27.01
2023-03-22T05:02:08.266Z,27.02
2023-03-22T05:02:40.027Z,27.02
2023-03-22T05:03:08.470Z,27.02
2023-03-22T05:03:38.500Z,27.02
2023-03-22T05:04:08.531Z,27.06
2023-03-22T05:04:38.558Z,27.05
2023-03-22T05:05:08.609Z,27.09
2023-03-22T05:05:38.628Z,27.07
2023-03-22T05:06:08.667Z,27.07
2023-03-22T05:06:38.711Z,27.09
2023-03-22T05:07:08.736Z,27.10
2023-03-22T05:07:38.764Z,27.10
2023-03-22T05:08:08.808Z,27.10
2023-03-22T05:08:38.830Z,27.10
2023-03-22T05:09:08.873Z,27.09
2023-03-22T05:09:38.902Z,27.13
2023-03-22T05:10:08.930Z,27.15
2023-03-22T05:10:39.262Z,27.13
2023-03-22T05:11:09.026Z,27.13
2023-03-22T05:11:39.062Z,27.16
2023-03-22T05:12:09.105Z,27.17
2023-03-22T05:12:39.137Z,27.16
2023-03-22T05:13:09.183Z,27.16
2023-03-22T05:13:39.215Z,27.19
2023-03-22T05:14:09.336Z,27.19
2023-03-22T05:14:39.430Z,27.19
2023-03-22T05:15:09.466Z,27.13
2023-03-22T05:15:39.563Z,27.16
2023-03-22T05:16:09.807Z,27.16
2023-03-22T05:16:39.616Z,27.13
2023-03-22T05:17:09.633Z,27.17
2023-03-22T05:17:39.622Z,27.16
2023-03-22T05:18:09.602Z,27.16
2023-03-22T05:18:39.725Z,27.16
2023-03-22T05:19:09.835Z,27.16
2023-03-22T05:19:39.835Z,27.16
2023-03-22T05:20:09.968Z,27.19
2023-03-22T05:20:40.264Z,27.19
2023-03-22T05:21:10.005Z,27.17
2023-03-22T05:21:40.121Z,27.16
2023-03-22T05:22:10.116Z,27.16
2023-03-22T05:22:40.122Z,27.16
2023-03-22T05:23:10.230Z,27.16
2023-03-22T05:23:40.229Z,27.10
2023-03-22T05:24:10.348Z,27.12
2023-03-22T05:24:40.461Z,27.09
2023-03-22T05:25:10.579Z,27.09
2023-03-22T05:25:40.581Z,27.07
2023-03-22T05:26:10.748Z,27.07
2023-03-22T05:26:40.741Z,27.06
2023-03-22T05:27:10.783Z,27.02
2023-03-22T05:27:40.811Z,27.05
2023-03-22T05:28:10.852Z,27.03
2023-03-22T05:28:40.886Z,27.05
2023-03-22T05:29:10.931Z,27.03
2023-03-22T05:29:40.943Z,27.03
2023-03-22T05:30:10.979Z,27.05
2023-03-22T05:30:41.312Z,27.03
2023-03-22T05:31:11.163Z,27.05
2023-03-22T05:31:41.070Z,27.07
2023-03-22T05:32:11.086Z,27.06
2023-03-22T05:32:41.142Z,27.10
2023-03-22T05:33:11.157Z,27.06
2023-03-22T05:33:41.187Z,27.06
2023-03-22T05:34:11.231Z,27.09
2023-03-22T05:34:41.274Z,27.07
2023-03-22T05:35:11.293Z,27.07
2023-03-22T05:35:41.414Z,27.10
2023-03-22T05:36:11.447Z,27.12
2023-03-22T05:36:41.456Z,27.09
2023-03-22T05:37:11.512Z,27.09
2023-03-22T05:37:41.596Z,27.06
2023-03-22T05:38:11.647Z,27.06
2023-03-22T05:38:41.689Z,27.07
2023-03-22T05:39:11.713Z,27.06
2023-03-22T05:39:41.742Z,27.06
2023-03-22T05:40:11.777Z,27.07
2023-03-22T05:40:42.098Z,27.05
2023-03-22T05:41:11.914Z,27.03
2023-03-22T05:41:41.950Z,27.03
2023-03-22T05:42:11.992Z,27.03
2023-03-22T05:42:42.017Z,27.05
2023-03-22T05:43:12.064Z,27.03
2023-03-22T05:43:42.095Z,27.05
2023-03-22T05:44:12.122Z,27.05
2023-03-22T05:44:42.154Z,27.05
2023-03-22T05:45:12.201Z,27.07
2023-03-22T05:45:42.249Z,27.05
2023-03-22T05:46:12.290Z,27.06
2023-03-22T05:46:42.466Z,27.07
2023-03-22T05:47:12.365Z,27.05
2023-03-22T05:47:42.459Z,27.09
2023-03-22T05:48:12.604Z,27.07
2023-03-22T05:48:42.574Z,27.09
2023-03-22T05:49:12.594Z,27.09
2023-03-22T05:49:42.612Z,27.10
2023-03-22T05:50:12.665Z,27.13
2023-03-22T05:50:42.716Z,27.15
2023-03-22T05:51:12.736Z,27.15
2023-03-22T05:51:42.788Z,27.15
2023-03-22T05:52:12.782Z,27.17
2023-03-22T05:52:42.821Z,27.19
2023-03-22T05:53:12.843Z,27.22
2023-03-22T05:53:42.879Z,27.20
2023-03-22T05:54:12.910Z,27.20
2023-03-22T05:54:42.943Z,27.23
2023-03-22T05:55:12.973Z,27.24
2023-03-22T05:55:43.014Z,27.24
2023-03-22T05:56:13.036Z,27.24
2023-03-22T05:56:43.062Z,27.23
2023-03-22T05:57:13.097Z,27.26
2023-03-22T05:57:43.129Z,27.26
2023-03-22T05:58:13.161Z,27.26
2023-03-22T05:58:43.188Z,27.27
2023-03-22T05:59:13.216Z,27.30
2023-03-22T05:59:43.249Z,27.27
2023-03-22T06:00:13.318Z,27.29
2023-03-22T06:00:43.348Z,27.33
2023-03-22T06:01:13.398Z,27.33
2023-03-22T06:01:43.431Z,27.32
2023-03-22T06:02:13.511Z,27.30
2023-03-22T06:02:43.565Z,27.34
2023-03-22T06:03:16.279Z,27.34
2023-03-22T06:03:43.714Z,27.32
2023-03-22T06:04:13.722Z,27.34
2023-03-22T06:04:43.750Z,27.37
2023-03-22T06:05:13.821Z,27.34
2023-03-22T06:05:43.858Z,27.34
2023-03-22T06:06:13.933Z,27.37
2023-03-22T06:06:43.933Z,27.40
2023-03-22T06:07:13.972Z,27.39
2023-03-22T06:07:43.998Z,27.41
2023-03-22T06:08:14.043Z,27.43
2023-03-22T06:08:44.104Z,27.43
2023-03-22T06:09:17.362Z,27.40
2023-03-22T06:09:44.234Z,27.39
2023-03-22T06:10:14.275Z,27.43
2023-03-22T06:10:44.303Z,27.43
2023-03-22T06:11:14.342Z,27.43
2023-03-22T06:11:44.370Z,27.44
2023-03-22T06:12:14.400Z,27.44
2023-03-22T06:12:44.444Z,27.43
2023-03-22T06:13:14.524Z,27.44
2023-03-22T06:13:44.586Z,27.44
2023-03-22T06:14:14.620Z,27.43
2023-03-22T06:14:44.652Z,27.43
2023-03-22T06:15:14.694Z,27.44
2023-03-22T06:15:44.726Z,27.43
2023-03-22T06:16:14.799Z,27.43
2023-03-22T06:16:44.908Z,27.43
2023-03-22T06:17:14.914Z,27.41
2023-03-22T06:17:44.909Z,27.41
2023-03-22T06:18:15.026Z,27.41
2023-03-22T06:18:45.055Z,27.41
2023-03-22T06:19:15.039Z,27.40
2023-03-22T06:19:45.038Z,27.41
2023-03-22T06:20:15.163Z,27.40
2023-03-22T06:20:45.159Z,27.37
2023-03-22T06:21:15.274Z,27.39
2023-03-22T06:21:45.393Z,27.39
2023-03-22T06:22:15.514Z,27.39
2023-03-22T06:22:45.521Z,27.36
2023-03-22T06:23:15.511Z,27.34
2023-03-22T06:23:45.508Z,27.34
2023-03-22T06:24:15.627Z,27.36
2023-03-22T06:24:45.634Z,27.36
2023-03-22T06:25:15.616Z,27.37
2023-03-22T06:25:45.735Z,27.33
2023-03-22T06:26:15.730Z,27.37
2023-03-22T06:26:45.741Z,27.39